sensor_id;sensor_type;location;lat;lon;timestamp;P1;durP1;ratioP1;P2;durP2;ratioP2
18623;SDS011;9441;51.420;7.036;2022-12-05T00:00:16;54.80;;;23.07;;
18623;SDS011;9441;51.420;7.036;2022-12-05T00:01:19;55.50;;;23.90;;
18623;SDS011;9441;51.420;7.036;2022-12-05T00:02:24;53.07;;;22.77;;
18623;SDS011;9441;51.420;7.036;2022-12-05T00:03:25;58.77;;;23.03;;
18623;SDS011;9441;51.420;7.036;2022-12-05T00:04:27;49.00;;;22.13;;
18623;SDS011;9441;51.420;7.036;2022-12-05T00:05:28;48.97;;;21.87;;
18623;SDS011;9441;51.420;7.036;2022-12-05T00:06:31;53.57;;;23.10;;
18623;SDS011;9441;51.420;7.036;2022-12-05T00:07:33;47.77;;;22.10;;
18623;SDS011;9441;51.420;7.036;2022-12-05T00:08:35;46.40;;;22.83;;
18623;SDS011;9441;51.420;7.036;2022-12-05T00:09:36;52.87;;;22.93;;
18623;SDS011;9441;51.420;7.036;2022-12-05T00:10:38;51.87;;;22.73;;
18623;SDS011;9441;51.420;7.036;2022-12-05T00:11:40;56.17;;;22.87;;
18623;SDS011;9441;51.420;7.036;2022-12-05T00:12:43;58.57;;;22.70;;
18623;SDS011;9441;51.420;7.036;2022-12-05T00:13:44;54.53;;;22.87;;
18623;SDS011;9441;51.420;7.036;2022-12-05T00:14:47;49.23;;;21.90;;
18623;SDS011;9441;51.420;7.036;2022-12-05T00:15:48;54.27;;;23.20;;
18623;SDS011;9441;51.420;7.036;2022-12-05T00:16:50;49.13;;;22.60;;
18623;SDS011;9441;51.420;7.036;2022-12-05T00:17:52;56.03;;;22.90;;
18623;SDS011;9441;51.420;7.036;2022-12-05T00:18:54;49.53;;;23.03;;
18623;SDS011;9441;51.420;7.036;2022-12-05T00:19:55;51.57;;;22.70;;
18623;SDS011;9441;51.420;7.036;2022-12-05T00:20:57;53.87;;;22.70;;
18623;SDS011;9441;51.420;7.036;2022-12-05T00:21:58;51.90;;;22.43;;
18623;SDS011;9441;51.420;7.036;2022-12-05T00:23:00;54.63;;;23.87;;
18623;SDS011;9441;51.420;7.036;2022-12-05T00:24:02;49.87;;;22.80;;
18623;SDS011;9441;51.420;7.036;2022-12-05T00:25:06;53.27;;;23.37;;
18623;SDS011;9441;51.420;7.036;2022-12-05T00:26:08;53.07;;;22.60;;
18623;SDS011;9441;51.420;7.036;2022-12-05T00:27:10;52.43;;;21.93;;
18623;SDS011;9441;51.420;7.036;2022-12-05T00:28:11;51.73;;;22.20;;
18623;SDS011;9441;51.420;7.036;2022-12-05T00:29:13;49.47;;;22.23;;
18623;SDS011;9441;51.420;7.036;2022-12-05T00:30:14;51.20;;;22.60;;
18623;SDS011;9441;51.420;7.036;2022-12-05T00:31:17;48.50;;;21.47;;
18623;SDS011;9441;51.420;7.036;2022-12-05T00:32:19;49.60;;;22.43;;
18623;SDS011;9441;51.420;7.036;2022-12-05T00:33:23;52.80;;;22.33;;
18623;SDS011;9441;51.420;7.036;2022-12-05T00:34:24;52.30;;;22.10;;
18623;SDS011;9441;51.420;7.036;2022-12-05T00:35:26;56.53;;;23.30;;
18623;SDS011;9441;51.420;7.036;2022-12-05T00:36:27;51.07;;;22.23;;
18623;SDS011;9441;51.420;7.036;2022-12-05T00:37:31;51.53;;;21.83;;
18623;SDS011;9441;51.420;7.036;2022-12-05T00:38:33;52.80;;;22.47;;
18623;SDS011;9441;51.420;7.036;2022-12-05T00:39:34;53.97;;;22.60;;
18623;SDS011;9441;51.420;7.036;2022-12-05T00:40:36;54.60;;;22.93;;
18623;SDS011;9441;51.420;7.036;2022-12-05T00:41:37;56.00;;;22.43;;
18623;SDS011;9441;51.420;7.036;2022-12-05T00:42:40;56.17;;;22.90;;
18623;SDS011;9441;51.420;7.036;2022-12-05T00:43:41;53.70;;;23.23;;
18623;SDS011;9441;51.420;7.036;2022-12-05T00:44:43;54.83;;;23.07;;
18623;SDS011;9441;51.420;7.036;2022-12-05T00:45:45;60.43;;;24.13;;
18623;SDS011;9441;51.420;7.036;2022-12-05T00:46:46;51.33;;;22.93;;
18623;SDS011;9441;51.420;7.036;2022-12-05T00:47:48;52.10;;;22.93;;
18623;SDS011;9441;51.420;7.036;2022-12-05T00:48:52;50.13;;;21.80;;
18623;SDS011;9441;51.420;7.036;2022-12-05T00:49:55;53.20;;;22.60;;
18623;SDS011;9441;51.420;7.036;2022-12-05T00:50:59;50.47;;;22.87;;
18623;SDS011;9441;51.420;7.036;2022-12-05T00:52:02;52.43;;;22.57;;
18623;SDS011;9441;51.420;7.036;2022-12-05T00:53:04;52.57;;;22.80;;
18623;SDS011;9441;51.420;7.036;2022-12-05T00:54:07;53.87;;;23.33;;
18623;SDS011;9441;51.420;7.036;2022-12-05T00:55:08;56.63;;;22.27;;
18623;SDS011;9441;51.420;7.036;2022-12-05T00:56:11;52.87;;;22.80;;
18623;SDS011;9441;51.420;7.036;2022-12-05T00:57:14;53.47;;;22.63;;
18623;SDS011;9441;51.420;7.036;2022-12-05T00:58:16;54.27;;;23.00;;
18623;SDS011;9441;51.420;7.036;2022-12-05T00:59:18;51.10;;;21.47;;
18623;SDS011;9441;51.420;7.036;2022-12-05T01:00:20;51.63;;;22.00;;
18623;SDS011;9441;51.420;7.036;2022-12-05T01:01:23;51.30;;;21.73;;
18623;SDS011;9441;51.420;7.036;2022-12-05T01:02:26;46.83;;;21.13;;
18623;SDS011;9441;51.420;7.036;2022-12-05T01:03:27;45.40;;;21.23;;
18623;SDS011;9441;51.420;7.036;2022-12-05T01:04:31;50.17;;;23.20;;
18623;SDS011;9441;51.420;7.036;2022-12-05T01:05:32;50.77;;;21.90;;
18623;SDS011;9441;51.420;7.036;2022-12-05T01:06:34;49.67;;;21.73;;
18623;SDS011;9441;51.420;7.036;2022-12-05T01:07:35;49.10;;;21.90;;
18623;SDS011;9441;51.420;7.036;2022-12-05T01:08:37;49.77;;;22.13;;
18623;SDS011;9441;51.420;7.036;2022-12-05T01:09:38;51.53;;;21.60;;
18623;SDS011;9441;51.420;7.036;2022-12-05T01:10:40;53.87;;;23.07;;
18623;SDS011;9441;51.420;7.036;2022-12-05T01:11:41;53.20;;;22.53;;
18623;SDS011;9441;51.420;7.036;2022-12-05T01:12:44;50.20;;;21.53;;
18623;SDS011;9441;51.420;7.036;2022-12-05T01:13:45;51.47;;;21.83;;
18623;SDS011;9441;51.420;7.036;2022-12-05T01:14:47;48.33;;;21.90;;
18623;SDS011;9441;51.420;7.036;2022-12-05T01:15:48;53.47;;;22.87;;
18623;SDS011;9441;51.420;7.036;2022-12-05T01:16:52;51.30;;;21.90;;
18623;SDS011;9441;51.420;7.036;2022-12-05T01:17:54;46.70;;;21.77;;
18623;SDS011;9441;51.420;7.036;2022-12-05T01:18:57;49.13;;;21.57;;
18623;SDS011;9441;51.420;7.036;2022-12-05T01:20:00;54.67;;;21.60;;
18623;SDS011;9441;51.420;7.036;2022-12-05T01:21:03;52.33;;;22.40;;
18623;SDS011;9441;51.420;7.036;2022-12-05T01:22:05;53.30;;;23.63;;
18623;SDS011;9441;51.420;7.036;2022-12-05T01:23:07;50.17;;;21.93;;
18623;SDS011;9441;51.420;7.036;2022-12-05T01:24:09;53.03;;;22.50;;
18623;SDS011;9441;51.420;7.036;2022-12-05T01:25:12;50.63;;;21.60;;
18623;SDS011;9441;51.420;7.036;2022-12-05T01:26:13;49.40;;;22.83;;
18623;SDS011;9441;51.420;7.036;2022-12-05T01:27:17;48.20;;;22.17;;
18623;SDS011;9441;51.420;7.036;2022-12-05T01:28:18;52.40;;;22.13;;
18623;SDS011;9441;51.420;7.036;2022-12-05T01:29:21;54.07;;;21.53;;
18623;SDS011;9441;51.420;7.036;2022-12-05T01:30:22;47.53;;;21.97;;
18623;SDS011;9441;51.420;7.036;2022-12-05T01:31:25;49.10;;;20.87;;
18623;SDS011;9441;51.420;7.036;2022-12-05T01:32:28;49.40;;;20.37;;
18623;SDS011;9441;51.420;7.036;2022-12-05T01:33:30;44.43;;;20.83;;
18623;SDS011;9441;51.420;7.036;2022-12-05T01:34:31;51.47;;;21.83;;
18623;SDS011;9441;51.420;7.036;2022-12-05T01:35:34;49.47;;;20.33;;
18623;SDS011;9441;51.420;7.036;2022-12-05T01:36:38;52.53;;;22.87;;
18623;SDS011;9441;51.420;7.036;2022-12-05T01:37:40;47.80;;;21.03;;
18623;SDS011;9441;51.420;7.036;2022-12-05T01:38:41;51.03;;;21.03;;
18623;SDS011;9441;51.420;7.036;2022-12-05T01:39:44;47.50;;;21.20;;
18623;SDS011;9441;51.420;7.036;2022-12-05T01:40:45;48.00;;;21.00;;
18623;SDS011;9441;51.420;7.036;2022-12-05T01:41:49;47.60;;;20.23;;
18623;SDS011;9441;51.420;7.036;2022-12-05T01:42:51;51.57;;;21.23;;
18623;SDS011;9441;51.420;7.036;2022-12-05T01:43:56;45.50;;;21.03;;
18623;SDS011;9441;51.420;7.036;2022-12-05T01:45:01;43.67;;;21.37;;
18623;SDS011;9441;51.420;7.036;2022-12-05T01:46:07;53.40;;;21.37;;
18623;SDS011;9441;51.420;7.036;2022-12-05T01:47:09;49.80;;;20.77;;
18623;SDS011;9441;51.420;7.036;2022-12-05T01:48:10;48.60;;;21.60;;
18623;SDS011;9441;51.420;7.036;2022-12-05T01:49:16;45.17;;;21.40;;
18623;SDS011;9441;51.420;7.036;2022-12-05T01:50:20;50.03;;;21.57;;
18623;SDS011;9441;51.420;7.036;2022-12-05T01:51:23;48.57;;;20.63;;
18623;SDS011;9441;51.420;7.036;2022-12-05T01:52:25;44.53;;;20.97;;
18623;SDS011;9441;51.420;7.036;2022-12-05T01:53:29;47.07;;;21.40;;
18623;SDS011;9441;51.420;7.036;2022-12-05T01:54:30;43.07;;;20.73;;
18623;SDS011;9441;51.420;7.036;2022-12-05T01:55:32;44.50;;;20.13;;
18623;SDS011;9441;51.420;7.036;2022-12-05T01:56:35;47.93;;;20.47;;
18623;SDS011;9441;51.420;7.036;2022-12-05T01:57:37;48.23;;;20.60;;
18623;SDS011;9441;51.420;7.036;2022-12-05T01:58:38;51.60;;;21.67;;
18623;SDS011;9441;51.420;7.036;2022-12-05T01:59:43;46.60;;;20.77;;
18623;SDS011;9441;51.420;7.036;2022-12-05T02:00:46;46.60;;;20.43;;
18623;SDS011;9441;51.420;7.036;2022-12-05T02:01:48;49.00;;;20.87;;
18623;SDS011;9441;51.420;7.036;2022-12-05T02:02:50;49.87;;;21.47;;
18623;SDS011;9441;51.420;7.036;2022-12-05T02:03:55;43.47;;;20.40;;
18623;SDS011;9441;51.420;7.036;2022-12-05T02:05:00;49.03;;;21.20;;
18623;SDS011;9441;51.420;7.036;2022-12-05T02:06:03;42.87;;;20.50;;
18623;SDS011;9441;51.420;7.036;2022-12-05T02:07:06;54.33;;;19.90;;
18623;SDS011;9441;51.420;7.036;2022-12-05T02:08:09;45.47;;;21.03;;
18623;SDS011;9441;51.420;7.036;2022-12-05T02:09:10;45.83;;;20.53;;
18623;SDS011;9441;51.420;7.036;2022-12-05T02:10:12;48.40;;;21.07;;
18623;SDS011;9441;51.420;7.036;2022-12-05T02:11:14;46.60;;;20.70;;
18623;SDS011;9441;51.420;7.036;2022-12-05T02:12:16;46.17;;;20.83;;
18623;SDS011;9441;51.420;7.036;2022-12-05T02:13:26;51.80;;;20.93;;
18623;SDS011;9441;51.420;7.036;2022-12-05T02:14:42;48.13;;;21.50;;
18623;SDS011;9441;51.420;7.036;2022-12-05T02:15:51;49.90;;;20.47;;
18623;SDS011;9441;51.420;7.036;2022-12-05T02:17:01;47.27;;;20.93;;
18623;SDS011;9441;51.420;7.036;2022-12-05T02:18:12;46.70;;;19.97;;
18623;SDS011;9441;51.420;7.036;2022-12-05T02:21:14;48.20;;;20.27;;
18623;SDS011;9441;51.420;7.036;2022-12-05T02:22:40;46.63;;;20.20;;
18623;SDS011;9441;51.420;7.036;2022-12-05T02:24:16;50.60;;;20.50;;
18623;SDS011;9441;51.420;7.036;2022-12-05T02:27:17;42.63;;;19.00;;
18623;SDS011;9441;51.420;7.036;2022-12-05T02:28:44;44.13;;;19.20;;
18623;SDS011;9441;51.420;7.036;2022-12-05T02:30:02;45.53;;;20.40;;
18623;SDS011;9441;51.420;7.036;2022-12-05T02:31:07;48.73;;;20.27;;
18623;SDS011;9441;51.420;7.036;2022-12-05T02:32:12;38.67;;;19.80;;
18623;SDS011;9441;51.420;7.036;2022-12-05T02:33:21;50.17;;;20.53;;
18623;SDS011;9441;51.420;7.036;2022-12-05T02:34:26;47.83;;;20.43;;
18623;SDS011;9441;51.420;7.036;2022-12-05T02:35:38;44.33;;;20.63;;
18623;SDS011;9441;51.420;7.036;2022-12-05T02:36:46;45.27;;;19.80;;
18623;SDS011;9441;51.420;7.036;2022-12-05T02:38:00;47.03;;;20.50;;
18623;SDS011;9441;51.420;7.036;2022-12-05T02:39:11;46.47;;;20.53;;
18623;SDS011;9441;51.420;7.036;2022-12-05T02:40:20;45.33;;;19.67;;
18623;SDS011;9441;51.420;7.036;2022-12-05T02:41:26;43.77;;;20.30;;
18623;SDS011;9441;51.420;7.036;2022-12-05T02:42:35;45.07;;;20.53;;
18623;SDS011;9441;51.420;7.036;2022-12-05T02:43:42;41.00;;;20.23;;
18623;SDS011;9441;51.420;7.036;2022-12-05T02:44:49;45.80;;;19.53;;
18623;SDS011;9441;51.420;7.036;2022-12-05T02:45:55;48.27;;;21.27;;
18623;SDS011;9441;51.420;7.036;2022-12-05T02:47:00;44.67;;;20.13;;
18623;SDS011;9441;51.420;7.036;2022-12-05T02:48:04;42.53;;;20.13;;
18623;SDS011;9441;51.420;7.036;2022-12-05T02:49:07;51.80;;;20.97;;
18623;SDS011;9441;51.420;7.036;2022-12-05T02:50:11;46.83;;;20.73;;
18623;SDS011;9441;51.420;7.036;2022-12-05T02:51:18;47.27;;;21.20;;
18623;SDS011;9441;51.420;7.036;2022-12-05T02:52:22;50.47;;;21.27;;
18623;SDS011;9441;51.420;7.036;2022-12-05T02:53:26;46.53;;;19.87;;
18623;SDS011;9441;51.420;7.036;2022-12-05T02:54:30;51.73;;;21.10;;
18623;SDS011;9441;51.420;7.036;2022-12-05T02:55:37;47.20;;;21.00;;
18623;SDS011;9441;51.420;7.036;2022-12-05T02:56:41;43.10;;;20.30;;
18623;SDS011;9441;51.420;7.036;2022-12-05T02:57:46;48.60;;;20.20;;
18623;SDS011;9441;51.420;7.036;2022-12-05T02:58:52;45.97;;;20.33;;
18623;SDS011;9441;51.420;7.036;2022-12-05T02:59:55;46.40;;;20.60;;
18623;SDS011;9441;51.420;7.036;2022-12-05T03:00:58;52.10;;;21.73;;
18623;SDS011;9441;51.420;7.036;2022-12-05T03:02:01;42.43;;;19.33;;
18623;SDS011;9441;51.420;7.036;2022-12-05T03:03:09;43.03;;;19.40;;
18623;SDS011;9441;51.420;7.036;2022-12-05T03:04:15;47.20;;;20.90;;
18623;SDS011;9441;51.420;7.036;2022-12-05T03:05:29;46.00;;;19.60;;
18623;SDS011;9441;51.420;7.036;2022-12-05T03:06:39;44.57;;;20.20;;
18623;SDS011;9441;51.420;7.036;2022-12-05T03:07:43;42.87;;;20.13;;
18623;SDS011;9441;51.420;7.036;2022-12-05T03:08:49;46.57;;;19.77;;
18623;SDS011;9441;51.420;7.036;2022-12-05T03:09:57;46.37;;;21.03;;
18623;SDS011;9441;51.420;7.036;2022-12-05T03:11:00;45.73;;;20.70;;
18623;SDS011;9441;51.420;7.036;2022-12-05T03:12:05;45.63;;;20.47;;
18623;SDS011;9441;51.420;7.036;2022-12-05T03:13:12;45.77;;;20.93;;
18623;SDS011;9441;51.420;7.036;2022-12-05T03:14:20;41.57;;;19.57;;
18623;SDS011;9441;51.420;7.036;2022-12-05T03:15:25;47.73;;;20.57;;
18623;SDS011;9441;51.420;7.036;2022-12-05T03:16:34;42.03;;;19.13;;
18623;SDS011;9441;51.420;7.036;2022-12-05T03:17:39;45.40;;;20.63;;
18623;SDS011;9441;51.420;7.036;2022-12-05T03:18:46;47.60;;;20.13;;
18623;SDS011;9441;51.420;7.036;2022-12-05T03:19:54;40.17;;;20.03;;
18623;SDS011;9441;51.420;7.036;2022-12-05T03:20:58;48.20;;;20.70;;
18623;SDS011;9441;51.420;7.036;2022-12-05T03:22:06;44.60;;;19.80;;
18623;SDS011;9441;51.420;7.036;2022-12-05T03:23:10;49.93;;;19.90;;
18623;SDS011;9441;51.420;7.036;2022-12-05T03:24:16;46.27;;;20.63;;
18623;SDS011;9441;51.420;7.036;2022-12-05T03:25:18;47.50;;;20.27;;
18623;SDS011;9441;51.420;7.036;2022-12-05T03:26:29;46.17;;;20.30;;
18623;SDS011;9441;51.420;7.036;2022-12-05T03:27:39;42.40;;;19.87;;
18623;SDS011;9441;51.420;7.036;2022-12-05T03:28:48;43.93;;;19.83;;
18623;SDS011;9441;51.420;7.036;2022-12-05T03:30:00;47.07;;;20.27;;
18623;SDS011;9441;51.420;7.036;2022-12-05T03:31:07;44.27;;;20.17;;
18623;SDS011;9441;51.420;7.036;2022-12-05T03:32:16;43.57;;;20.23;;
18623;SDS011;9441;51.420;7.036;2022-12-05T03:33:24;48.93;;;20.50;;
18623;SDS011;9441;51.420;7.036;2022-12-05T03:34:30;50.30;;;20.90;;
18623;SDS011;9441;51.420;7.036;2022-12-05T03:35:39;43.50;;;19.73;;
18623;SDS011;9441;51.420;7.036;2022-12-05T03:36:45;48.80;;;20.80;;
18623;SDS011;9441;51.420;7.036;2022-12-05T03:37:52;44.67;;;20.17;;
18623;SDS011;9441;51.420;7.036;2022-12-05T03:38:56;47.83;;;20.90;;
18623;SDS011;9441;51.420;7.036;2022-12-05T03:40:04;42.33;;;20.00;;
18623;SDS011;9441;51.420;7.036;2022-12-05T03:41:13;45.87;;;20.10;;
18623;SDS011;9441;51.420;7.036;2022-12-05T03:42:23;47.13;;;19.97;;
18623;SDS011;9441;51.420;7.036;2022-12-05T03:43:31;44.47;;;19.60;;
18623;SDS011;9441;51.420;7.036;2022-12-05T03:44:42;44.43;;;19.70;;
18623;SDS011;9441;51.420;7.036;2022-12-05T03:45:48;53.30;;;20.23;;
18623;SDS011;9441;51.420;7.036;2022-12-05T03:46:56;47.10;;;20.03;;
18623;SDS011;9441;51.420;7.036;2022-12-05T03:48:04;45.03;;;20.83;;
18623;SDS011;9441;51.420;7.036;2022-12-05T03:49:12;45.63;;;19.83;;
18623;SDS011;9441;51.420;7.036;2022-12-05T03:50:21;40.50;;;19.67;;
18623;SDS011;9441;51.420;7.036;2022-12-05T03:51:27;45.70;;;19.17;;
18623;SDS011;9441;51.420;7.036;2022-12-05T03:52:34;45.87;;;20.13;;
18623;SDS011;9441;51.420;7.036;2022-12-05T03:53:41;43.47;;;19.37;;
18623;SDS011;9441;51.420;7.036;2022-12-05T03:54:47;47.53;;;20.67;;
18623;SDS011;9441;51.420;7.036;2022-12-05T03:55:56;42.77;;;19.83;;
18623;SDS011;9441;51.420;7.036;2022-12-05T03:57:01;45.50;;;20.17;;
18623;SDS011;9441;51.420;7.036;2022-12-05T03:58:09;43.97;;;19.73;;
18623;SDS011;9441;51.420;7.036;2022-12-05T03:59:15;49.87;;;20.33;;
18623;SDS011;9441;51.420;7.036;2022-12-05T04:00:27;43.90;;;19.83;;
18623;SDS011;9441;51.420;7.036;2022-12-05T04:01:33;41.73;;;18.83;;
18623;SDS011;9441;51.420;7.036;2022-12-05T04:02:37;44.07;;;19.60;;
18623;SDS011;9441;51.420;7.036;2022-12-05T04:03:47;47.70;;;20.23;;
18623;SDS011;9441;51.420;7.036;2022-12-05T04:04:53;43.53;;;19.63;;
18623;SDS011;9441;51.420;7.036;2022-12-05T04:06:00;46.77;;;19.17;;
18623;SDS011;9441;51.420;7.036;2022-12-05T04:07:05;45.63;;;19.90;;
18623;SDS011;9441;51.420;7.036;2022-12-05T04:08:09;43.13;;;19.63;;
18623;SDS011;9441;51.420;7.036;2022-12-05T04:09:17;42.30;;;19.53;;
18623;SDS011;9441;51.420;7.036;2022-12-05T04:10:22;43.43;;;20.17;;
18623;SDS011;9441;51.420;7.036;2022-12-05T04:11:29;45.23;;;19.90;;
18623;SDS011;9441;51.420;7.036;2022-12-05T04:12:34;46.77;;;19.63;;
18623;SDS011;9441;51.420;7.036;2022-12-05T04:13:39;46.30;;;19.67;;
18623;SDS011;9441;51.420;7.036;2022-12-05T04:14:44;44.43;;;20.70;;
18623;SDS011;9441;51.420;7.036;2022-12-05T04:15:52;47.90;;;20.80;;
18623;SDS011;9441;51.420;7.036;2022-12-05T04:17:17;45.87;;;19.23;;
18623;SDS011;9441;51.420;7.036;2022-12-05T04:18:25;43.70;;;19.63;;
18623;SDS011;9441;51.420;7.036;2022-12-05T04:19:29;45.33;;;18.97;;
18623;SDS011;9441;51.420;7.036;2022-12-05T04:20:51;49.37;;;19.70;;
18623;SDS011;9441;51.420;7.036;2022-12-05T04:22:13;46.37;;;20.03;;
18623;SDS011;9441;51.420;7.036;2022-12-05T04:23:15;46.07;;;20.27;;
18623;SDS011;9441;51.420;7.036;2022-12-05T04:24:18;45.93;;;20.37;;
18623;SDS011;9441;51.420;7.036;2022-12-05T04:25:43;44.57;;;20.17;;
18623;SDS011;9441;51.420;7.036;2022-12-05T04:26:52;42.20;;;19.77;;
18623;SDS011;9441;51.420;7.036;2022-12-05T04:27:58;44.20;;;19.10;;
18623;SDS011;9441;51.420;7.036;2022-12-05T04:29:14;48.07;;;19.73;;
18623;SDS011;9441;51.420;7.036;2022-12-05T04:30:23;43.57;;;19.27;;
18623;SDS011;9441;51.420;7.036;2022-12-05T04:31:31;44.80;;;18.60;;
18623;SDS011;9441;51.420;7.036;2022-12-05T04:32:36;43.03;;;19.03;;
18623;SDS011;9441;51.420;7.036;2022-12-05T04:33:45;43.27;;;18.87;;
18623;SDS011;9441;51.420;7.036;2022-12-05T04:34:54;43.67;;;18.50;;
18623;SDS011;9441;51.420;7.036;2022-12-05T04:36:01;45.40;;;19.40;;
18623;SDS011;9441;51.420;7.036;2022-12-05T04:37:05;42.67;;;19.30;;
18623;SDS011;9441;51.420;7.036;2022-12-05T04:38:14;44.43;;;18.70;;
18623;SDS011;9441;51.420;7.036;2022-12-05T04:39:18;43.10;;;18.97;;
18623;SDS011;9441;51.420;7.036;2022-12-05T04:40:25;44.50;;;19.77;;
18623;SDS011;9441;51.420;7.036;2022-12-05T04:41:32;40.30;;;19.07;;
18623;SDS011;9441;51.420;7.036;2022-12-05T04:42:37;43.80;;;19.73;;
18623;SDS011;9441;51.420;7.036;2022-12-05T04:43:40;43.50;;;19.73;;
18623;SDS011;9441;51.420;7.036;2022-12-05T04:44:44;44.37;;;19.20;;
18623;SDS011;9441;51.420;7.036;2022-12-05T04:45:48;43.40;;;19.53;;
18623;SDS011;9441;51.420;7.036;2022-12-05T04:46:53;40.43;;;18.80;;
18623;SDS011;9441;51.420;7.036;2022-12-05T04:47:57;42.83;;;19.47;;
18623;SDS011;9441;51.420;7.036;2022-12-05T04:49:04;44.13;;;19.33;;
18623;SDS011;9441;51.420;7.036;2022-12-05T04:50:09;45.30;;;20.17;;
18623;SDS011;9441;51.420;7.036;2022-12-05T04:51:14;45.67;;;19.97;;
18623;SDS011;9441;51.420;7.036;2022-12-05T04:52:17;45.03;;;20.87;;
18623;SDS011;9441;51.420;7.036;2022-12-05T04:53:20;42.30;;;18.03;;
18623;SDS011;9441;51.420;7.036;2022-12-05T04:54:23;46.03;;;19.97;;
18623;SDS011;9441;51.420;7.036;2022-12-05T04:55:29;42.40;;;17.90;;
18623;SDS011;9441;51.420;7.036;2022-12-05T04:56:34;43.47;;;19.77;;
18623;SDS011;9441;51.420;7.036;2022-12-05T04:57:39;44.87;;;19.33;;
18623;SDS011;9441;51.420;7.036;2022-12-05T04:58:49;45.80;;;20.10;;
18623;SDS011;9441;51.420;7.036;2022-12-05T04:59:51;44.67;;;19.37;;
18623;SDS011;9441;51.420;7.036;2022-12-05T05:00:55;43.87;;;19.80;;
18623;SDS011;9441;51.420;7.036;2022-12-05T05:02:05;41.13;;;19.13;;
18623;SDS011;9441;51.420;7.036;2022-12-05T05:03:07;40.43;;;19.20;;
18623;SDS011;9441;51.420;7.036;2022-12-05T05:04:18;46.87;;;19.00;;
18623;SDS011;9441;51.420;7.036;2022-12-05T05:05:25;44.67;;;19.57;;
18623;SDS011;9441;51.420;7.036;2022-12-05T05:06:29;47.17;;;20.43;;
18623;SDS011;9441;51.420;7.036;2022-12-05T05:07:31;44.63;;;20.10;;
18623;SDS011;9441;51.420;7.036;2022-12-05T05:08:45;39.53;;;18.17;;
18623;SDS011;9441;51.420;7.036;2022-12-05T05:09:49;45.43;;;19.37;;
18623;SDS011;9441;51.420;7.036;2022-12-05T05:11:06;45.93;;;19.27;;
18623;SDS011;9441;51.420;7.036;2022-12-05T05:12:13;41.80;;;19.20;;
18623;SDS011;9441;51.420;7.036;2022-12-05T05:13:14;41.10;;;19.53;;
18623;SDS011;9441;51.420;7.036;2022-12-05T05:14:16;46.73;;;19.77;;
18623;SDS011;9441;51.420;7.036;2022-12-05T05:15:17;44.13;;;19.97;;
18623;SDS011;9441;51.420;7.036;2022-12-05T05:16:20;46.40;;;20.47;;
18623;SDS011;9441;51.420;7.036;2022-12-05T05:17:23;46.43;;;19.83;;
18623;SDS011;9441;51.420;7.036;2022-12-05T05:18:24;43.30;;;20.00;;
18623;SDS011;9441;51.420;7.036;2022-12-05T05:19:26;43.80;;;20.57;;
18623;SDS011;9441;51.420;7.036;2022-12-05T05:20:28;41.83;;;19.03;;
18623;SDS011;9441;51.420;7.036;2022-12-05T05:21:31;40.30;;;19.33;;
18623;SDS011;9441;51.420;7.036;2022-12-05T05:22:34;44.03;;;20.40;;
18623;SDS011;9441;51.420;7.036;2022-12-05T05:23:36;44.37;;;19.20;;
18623;SDS011;9441;51.420;7.036;2022-12-05T05:24:37;43.60;;;19.20;;
18623;SDS011;9441;51.420;7.036;2022-12-05T05:25:38;43.70;;;19.70;;
18623;SDS011;9441;51.420;7.036;2022-12-05T05:26:40;44.13;;;20.27;;
18623;SDS011;9441;51.420;7.036;2022-12-05T05:27:46;48.07;;;19.63;;
18623;SDS011;9441;51.420;7.036;2022-12-05T05:28:49;44.47;;;19.60;;
18623;SDS011;9441;51.420;7.036;2022-12-05T05:29:52;44.33;;;20.10;;
18623;SDS011;9441;51.420;7.036;2022-12-05T05:30:52;42.57;;;20.23;;
18623;SDS011;9441;51.420;7.036;2022-12-05T05:31:54;45.23;;;20.23;;
18623;SDS011;9441;51.420;7.036;2022-12-05T05:32:57;48.63;;;20.37;;
18623;SDS011;9441;51.420;7.036;2022-12-05T05:33:59;37.47;;;18.43;;
18623;SDS011;9441;51.420;7.036;2022-12-05T05:35:00;46.63;;;20.47;;
18623;SDS011;9441;51.420;7.036;2022-12-05T05:36:05;46.13;;;20.57;;
18623;SDS011;9441;51.420;7.036;2022-12-05T05:37:08;42.07;;;19.83;;
18623;SDS011;9441;51.420;7.036;2022-12-05T05:38:09;45.50;;;20.67;;
18623;SDS011;9441;51.420;7.036;2022-12-05T05:39:12;44.47;;;19.90;;
18623;SDS011;9441;51.420;7.036;2022-12-05T05:40:14;46.40;;;20.50;;
18623;SDS011;9441;51.420;7.036;2022-12-05T05:41:17;50.00;;;20.97;;
18623;SDS011;9441;51.420;7.036;2022-12-05T05:42:19;48.30;;;21.10;;
18623;SDS011;9441;51.420;7.036;2022-12-05T05:43:20;51.03;;;21.03;;
18623;SDS011;9441;51.420;7.036;2022-12-05T05:44:21;46.40;;;19.77;;
18623;SDS011;9441;51.420;7.036;2022-12-05T05:45:23;44.63;;;20.20;;
18623;SDS011;9441;51.420;7.036;2022-12-05T05:46:26;45.23;;;20.30;;
18623;SDS011;9441;51.420;7.036;2022-12-05T05:47:28;44.30;;;20.27;;
18623;SDS011;9441;51.420;7.036;2022-12-05T05:48:30;47.80;;;20.53;;
18623;SDS011;9441;51.420;7.036;2022-12-05T05:49:31;43.57;;;20.77;;
18623;SDS011;9441;51.420;7.036;2022-12-05T05:50:33;44.90;;;20.43;;
18623;SDS011;9441;51.420;7.036;2022-12-05T05:51:36;46.93;;;20.53;;
18623;SDS011;9441;51.420;7.036;2022-12-05T05:52:38;44.40;;;20.70;;
18623;SDS011;9441;51.420;7.036;2022-12-05T05:53:39;47.23;;;20.80;;
18623;SDS011;9441;51.420;7.036;2022-12-05T05:54:41;44.40;;;20.13;;
18623;SDS011;9441;51.420;7.036;2022-12-05T05:55:42;44.60;;;21.53;;
18623;SDS011;9441;51.420;7.036;2022-12-05T05:56:45;44.50;;;20.97;;
18623;SDS011;9441;51.420;7.036;2022-12-05T05:57:46;52.20;;;20.83;;
18623;SDS011;9441;51.420;7.036;2022-12-05T05:58:53;42.33;;;20.50;;
18623;SDS011;9441;51.420;7.036;2022-12-05T05:59:55;46.10;;;21.53;;
18623;SDS011;9441;51.420;7.036;2022-12-05T06:01:01;45.93;;;20.70;;
18623;SDS011;9441;51.420;7.036;2022-12-05T06:02:03;42.37;;;20.23;;
18623;SDS011;9441;51.420;7.036;2022-12-05T06:03:04;51.03;;;20.83;;
18623;SDS011;9441;51.420;7.036;2022-12-05T06:04:06;47.10;;;20.80;;
18623;SDS011;9441;51.420;7.036;2022-12-05T06:05:07;52.63;;;20.83;;
18623;SDS011;9441;51.420;7.036;2022-12-05T06:06:10;50.87;;;22.00;;
18623;SDS011;9441;51.420;7.036;2022-12-05T06:07:14;51.97;;;20.30;;
18623;SDS011;9441;51.420;7.036;2022-12-05T06:08:16;49.13;;;20.83;;
18623;SDS011;9441;51.420;7.036;2022-12-05T06:09:17;52.77;;;21.70;;
18623;SDS011;9441;51.420;7.036;2022-12-05T06:10:19;48.10;;;20.77;;
18623;SDS011;9441;51.420;7.036;2022-12-05T06:11:21;48.43;;;20.67;;
18623;SDS011;9441;51.420;7.036;2022-12-05T06:12:24;41.53;;;19.70;;
18623;SDS011;9441;51.420;7.036;2022-12-05T06:13:25;44.10;;;19.67;;
18623;SDS011;9441;51.420;7.036;2022-12-05T06:14:27;48.50;;;20.07;;
18623;SDS011;9441;51.420;7.036;2022-12-05T06:15:29;47.97;;;20.43;;
18623;SDS011;9441;51.420;7.036;2022-12-05T06:16:30;46.33;;;20.93;;
18623;SDS011;9441;51.420;7.036;2022-12-05T06:17:32;48.37;;;20.17;;
18623;SDS011;9441;51.420;7.036;2022-12-05T06:18:33;43.33;;;19.83;;
18623;SDS011;9441;51.420;7.036;2022-12-05T06:19:35;47.33;;;20.20;;
18623;SDS011;9441;51.420;7.036;2022-12-05T06:20:37;40.20;;;19.40;;
18623;SDS011;9441;51.420;7.036;2022-12-05T06:21:38;44.63;;;20.00;;
18623;SDS011;9441;51.420;7.036;2022-12-05T06:22:42;43.40;;;19.47;;
18623;SDS011;9441;51.420;7.036;2022-12-05T06:23:43;46.67;;;19.97;;
18623;SDS011;9441;51.420;7.036;2022-12-05T06:24:45;40.77;;;18.87;;
18623;SDS011;9441;51.420;7.036;2022-12-05T06:25:46;49.80;;;20.07;;
18623;SDS011;9441;51.420;7.036;2022-12-05T06:26:48;43.70;;;19.10;;